createdAt,value
2022-12-14T00:01:54.562Z,100641.13
2022-12-14T00:04:22.315Z,100631.88
2022-12-14T00:06:51.670Z,100624.97
2022-12-14T00:09:19.649Z,100627.59
2022-12-14T00:11:47.404Z,100621.78
2022-12-14T00:14:15.601Z,100616.84
2022-12-14T00:16:43.454Z,100610.38
2022-12-14T00:19:12.433Z,100611.38
2022-12-14T00:21:40.384Z,100603.31
2022-12-14T00:24:10.346Z,100614.44
2022-12-14T00:26:38.294Z,100611.72
2022-12-14T00:29:06.311Z,100600.66
2022-12-14T00:31:34.350Z,100602.44
2022-12-14T00:34:02.357Z,100591.53
2022-12-14T00:36:31.750Z,100596.13
2022-12-14T00:39:00.204Z,100596.41
2022-12-14T00:41:29.442Z,100597.41
2022-12-14T00:43:57.632Z,100603.03
2022-12-14T00:46:25.654Z,100595.97
2022-12-14T00:48:54.540Z,100594.63
2022-12-14T00:51:22.452Z,100591.22
2022-12-14T00:53:50.445Z,100602.81
2022-12-14T00:56:18.241Z,100592.53
2022-12-14T00:58:51.561Z,100603.09
2022-12-14T01:01:19.964Z,100597.69
2022-12-14T01:03:48.301Z,100602.22
2022-12-14T01:06:18.327Z,100603.91
2022-12-14T01:08:46.352Z,100595.50
2022-12-14T01:11:15.438Z,100597.41
2022-12-14T01:13:43.750Z,100594.13
2022-12-14T01:16:15.549Z,100585.19
2022-12-14T01:18:44.756Z,100587.31
2022-12-14T01:21:15.165Z,100578.31
2022-12-14T01:23:44.084Z,100579.53
2022-12-14T01:26:12.707Z,100578.84
2022-12-14T01:28:41.037Z,100582.81
2022-12-14T01:31:10.796Z,100577.03
2022-12-14T01:33:40.575Z,100575.09
2022-12-14T01:36:09.003Z,100581.41
2022-12-14T01:38:37.235Z,100581.63
2022-12-14T01:41:06.125Z,100577.28
2022-12-14T01:43:48.775Z,100574.31
2022-12-14T01:46:22.447Z,100581.91
2022-12-14T01:48:55.972Z,100568.00
2022-12-14T01:51:26.237Z,100567.38
2022-12-14T01:53:55.497Z,100565.28
2022-12-14T01:56:23.580Z,100564.00
2022-12-14T01:58:51.532Z,100564.69
2022-12-14T02:01:19.470Z,100563.34
2022-12-14T02:03:51.674Z,100564.44
2022-12-14T02:06:26.921Z,100561.75
2022-12-14T02:08:56.674Z,100567.38
2022-12-14T02:11:33.600Z,100558.16
2022-12-14T02:14:01.487Z,100558.34
2022-12-14T02:16:29.870Z,100548.03
2022-12-14T02:19:00.639Z,100554.00
2022-12-14T02:21:45.907Z,100555.19
2022-12-14T02:24:43.070Z,100563.25
2022-12-14T02:27:38.787Z,100560.25
2022-12-14T02:30:11.825Z,100566.25
2022-12-14T02:33:08.835Z,100565.31
2022-12-14T02:35:43.648Z,100559.56
2022-12-14T02:38:28.300Z,100566.63
2022-12-14T02:41:07.515Z,100565.13
2022-12-14T02:43:43.111Z,100559.75
2022-12-14T02:46:22.181Z,100561.56
2022-12-14T02:48:58.268Z,100559.25
2022-12-14T02:51:35.878Z,100553.53
2022-12-14T02:54:09.480Z,100551.75
2022-12-14T02:56:44.095Z,100553.53
2022-12-14T02:59:13.082Z,100554.69
2022-12-14T03:01:43.933Z,100549.19
2022-12-14T03:04:16.075Z,100543.69
2022-12-14T03:06:54.597Z,100545.34
2022-12-14T03:09:22.669Z,100541.59
2022-12-14T03:11:55.236Z,100544.88
2022-12-14T03:14:28.649Z,100544.13
2022-12-14T03:17:05.339Z,100535.75
2022-12-14T03:19:39.028Z,100536.56
2022-12-14T03:22:10.877Z,100539.84
2022-12-14T03:24:44.388Z,100538.19
2022-12-14T03:27:16.685Z,100533.31
2022-12-14T03:29:48.207Z,100528.84
2022-12-14T03:32:21.230Z,100524.69
2022-12-14T03:34:55.155Z,100527.84
2022-12-14T03:37:28.986Z,100521.38
2022-12-14T03:39:57.168Z,100512.91
2022-12-14T03:42:28.197Z,100515.00
2022-12-14T03:45:04.519Z,100515.78
2022-12-14T03:47:52.764Z,100522.97
2022-12-14T03:50:25.934Z,100520.84
2022-12-14T03:53:00.111Z,100523.88
2022-12-14T03:55:33.216Z,100507.19
2022-12-14T03:58:18.969Z,100507.50
2022-12-14T04:00:53.313Z,100501.25
2022-12-14T04:03:31.159Z,100506.91
2022-12-14T04:06:03.315Z,100499.00
2022-12-14T04:08:40.195Z,100506.91
2022-12-14T04:11:29.274Z,100501.84
2022-12-14T04:14:19.561Z,100494.72
2022-12-14T04:17:09.956Z,100503.66
2022-12-14T04:19:48.914Z,100496.34
2022-12-14T04:22:22.451Z,100489.06
2022-12-14T04:25:13.243Z,100494.09
2022-12-14T04:27:45.789Z,100492.34
2022-12-14T04:30:14.707Z,100492.34
2022-12-14T04:32:47.321Z,100490.69
2022-12-14T04:35:22.261Z,100482.84
2022-12-14T04:37:53.673Z,100481.34
2022-12-14T04:40:25.556Z,100482.97
2022-12-14T04:42:56.793Z,100482.41
2022-12-14T04:45:29.965Z,100488.06
2022-12-14T04:48:04.855Z,100470.84
2022-12-14T04:50:42.111Z,100472.91
2022-12-14T04:53:14.792Z,100463.25
2022-12-14T04:55:50.341Z,100461.75
2022-12-14T04:58:23.244Z,100455.94
2022-12-14T05:01:11.556Z,100451.91
2022-12-14T05:03:52.432Z,100454.28
2022-12-14T05:06:27.816Z,100446.69
2022-12-14T05:09:12.051Z,100444.06
2022-12-14T05:11:55.689Z,100446.75
2022-12-14T05:14:33.156Z,100443.06
2022-12-14T05:17:09.300Z,100452.56
2022-12-14T05:19:38.327Z,100438.44
2022-12-14T05:22:11.318Z,100443.19
2022-12-14T05:24:39.142Z,100435.91
2022-12-14T05:27:06.903Z,100433.22
2022-12-14T05:29:35.175Z,100433.66
2022-12-14T05:32:03.919Z,100428.03
2022-12-14T05:34:31.834Z,100424.03
2022-12-14T05:36:59.848Z,100426.84
2022-12-14T05:39:28.973Z,100417.78
2022-12-14T05:41:57.004Z,100406.94
2022-12-14T05:44:24.949Z,100412.75
2022-12-14T05:46:54.019Z,100409.34
2022-12-14T05:49:22.026Z,100399.81
2022-12-14T05:51:50.403Z,100394.19
2022-12-14T05:54:18.214Z,100391.06
2022-12-14T05:56:47.790Z,100385.00
2022-12-14T05:59:17.010Z,100383.34
2022-12-14T06:01:49.165Z,100382.59
2022-12-14T06:04:19.856Z,100383.94
2022-12-14T06:06:47.905Z,100382.75
2022-12-14T06:09:17.135Z,100377.09
2022-12-14T06:11:46.930Z,100378.91
2022-12-14T06:14:16.403Z,100370.56
2022-12-14T06:16:45.719Z,100382.75
2022-12-14T06:19:15.429Z,100379.47
2022-12-14T06:21:44.917Z,100377.97
2022-12-14T06:24:14.236Z,100372.34
2022-12-14T06:26:42.529Z,100376.50
2022-12-14T06:29:18.937Z,100367.28
2022-12-14T06:31:49.452Z,100371.78
2022-12-14T06:34:18.022Z,100374.44
2022-12-14T06:36:46.967Z,100365.38
2022-12-14T06:39:16.276Z,100365.25
2022-12-14T06:41:51.327Z,100368.50
2022-12-14T06:44:23.405Z,100366.84
2022-12-14T06:46:51.390Z,100361.34
2022-12-14T06:49:19.481Z,100363.44
2022-12-14T06:51:47.427Z,100347.06
2022-12-14T06:54:16.470Z,100356.91
2022-12-14T06:56:47.377Z,100360.47
2022-12-14T06:59:16.549Z,100355.53
2022-12-14T07:01:46.020Z,100361.81
2022-12-14T07:04:20.980Z,100362.88
2022-12-14T07:06:51.486Z,100365.53
2022-12-14T07:09:19.706Z,100348.72
2022-12-14T07:11:50.576Z,100356.91
2022-12-14T07:14:19.209Z,100351.84
2022-12-14T07:16:49.344Z,100345.59
2022-12-14T07:19:18.145Z,100345.59
2022-12-14T07:21:49.129Z,100340.44
2022-12-14T07:24:19.887Z,100334.78
2022-12-14T07:26:47.836Z,100333.91
2022-12-14T07:29:16.968Z,100323.66
2022-12-14T07:31:44.810Z,100323.91
2022-12-14T07:34:19.237Z,100317.38
2022-12-14T07:36:49.967Z,100315.91
2022-12-14T07:39:28.832Z,100315.28
2022-12-14T07:41:59.749Z,100312.00
2022-12-14T07:44:27.913Z,100311.97
2022-12-14T07:46:56.088Z,100311.81
2022-12-14T07:49:25.734Z,100317.97
2022-12-14T07:51:54.012Z,100309.09
2022-12-14T07:54:22.311Z,100310.91
2022-12-14T07:56:51.004Z,100315.56
2022-12-14T07:59:19.219Z,100314.16
2022-12-14T08:01:47.337Z,100319.09
2022-12-14T08:04:16.771Z,100319.66
2022-12-14T08:06:50.219Z,100316.44
2022-12-14T08:09:20.184Z,100313.56
2022-12-14T08:11:48.219Z,100314.41
2022-12-14T08:14:18.269Z,100309.59
2022-12-14T08:16:47.350Z,100310.13
2022-12-14T08:19:18.603Z,100316.88
2022-12-14T08:21:48.086Z,100306.94
2022-12-14T08:24:16.880Z,100314.34
2022-12-14T08:26:49.125Z,100303.00
2022-12-14T08:29:18.269Z,100303.66
2022-12-14T08:31:48.508Z,100301.06
2022-12-14T08:34:22.186Z,100301.22
2022-12-14T08:36:51.540Z,100300.66
2022-12-14T08:39:19.591Z,100291.09
2022-12-14T08:41:47.509Z,100290.06
2022-12-14T08:44:17.082Z,100289.28
2022-12-14T08:46:45.225Z,100282.91
2022-12-14T08:49:13.426Z,100286.69
2022-12-14T08:51:41.992Z,100284.22
2022-12-14T08:54:11.578Z,100284.56
2022-12-14T08:56:39.618Z,100275.38
2022-12-14T08:59:07.600Z,100271.53
2022-12-14T09:01:35.723Z,100275.91
2022-12-14T09:04:05.661Z,100280.72
2022-12-14T09:06:36.946Z,100276.78
2022-12-14T09:09:08.174Z,100280.88
2022-12-14T09:11:42.931Z,100275.22
2022-12-14T09:14:11.067Z,100274.25
2022-12-14T09:16:40.076Z,100268.72
2022-12-14T09:19:08.380Z,100275.63
2022-12-14T09:21:36.319Z,100268.38
2022-12-14T09:24:04.408Z,100270.84
2022-12-14T09:26:33.860Z,100271.00
2022-12-14T09:29:03.216Z,100261.91
2022-12-14T09:31:31.262Z,100256.38
2022-12-14T09:33:59.532Z,100258.28
2022-12-14T09:36:29.599Z,100250.13
2022-12-14T09:38:58.270Z,100244.81
2022-12-14T09:41:38.246Z,100250.03
2022-12-14T09:44:19.081Z,100240.06
2022-12-14T09:46:55.362Z,100231.09
2022-12-14T09:49:29.167Z,100236.09
2022-12-14T09:52:01.874Z,100227.06
2022-12-14T09:54:34.665Z,100223.16
2022-12-14T09:57:08.993Z,100224.16
2022-12-14T09:59:38.549Z,100218.06
2022-12-14T10:02:32.369Z,100210.75
2022-12-14T10:05:17.098Z,100214.94
2022-12-14T10:07:56.065Z,100219.84
2022-12-14T10:10:30.433Z,100212.88
2022-12-14T10:13:04.269Z,100201.00
2022-12-14T10:15:44.024Z,100210.75
2022-12-14T10:18:57.078Z,100197.31
2022-12-14T10:21:17.393Z,100200.34
2022-12-14T10:23:53.980Z,100196.59
2022-12-14T10:26:29.029Z,100191.50
2022-12-14T10:29:01.735Z,100183.38
2022-12-14T10:31:40.985Z,100188.84
2022-12-14T10:34:19.060Z,100184.66
2022-12-14T10:36:55.135Z,100180.59
2022-12-14T10:39:31.109Z,100176.28
2022-12-14T10:42:10.864Z,100173.63
2022-12-14T10:44:51.477Z,100172.22
2022-12-14T10:47:33.374Z,100164.75
2022-12-14T10:50:14.269Z,100161.31
2022-12-14T10:52:44.545Z,100160.81
2022-12-14T10:55:17.561Z,100158.28
2022-12-14T10:57:45.518Z,100161.81
2022-12-14T11:00:22.947Z,100159.25
2022-12-14T11:02:58.325Z,100145.66
2022-12-14T11:05:37.522Z,100147.69
2022-12-14T11:08:08.225Z,100140.19
2022-12-14T11:10:39.429Z,100133.88
2022-12-14T11:13:16.400Z,100130.47
2022-12-14T11:15:47.028Z,100120.91
2022-12-14T11:18:31.171Z,100118.56
2022-12-14T11:21:01.619Z,100120.31
2022-12-14T11:23:31.450Z,100115.31
2022-12-14T11:26:01.562Z,100119.25
2022-12-14T11:28:36.970Z,100111.13
2022-12-14T11:31:10.369Z,100117.19
2022-12-14T11:33:52.793Z,100111.53
2022-12-14T11:36:26.924Z,100110.81
2022-12-14T11:38:59.227Z,100113.47
2022-12-14T11:41:31.241Z,100119.81
2022-12-14T11:44:10.930Z,100108.63
2022-12-14T11:46:45.140Z,100105.31
2022-12-14T11:49:24.726Z,100121.44
2022-12-14T11:51:58.146Z,100111.28
2022-12-14T11:54:26.808Z,100111.13
2022-12-14T11:57:01.161Z,100105.00
2022-12-14T11:59:38.194Z,100109.50
2022-12-14T12:02:21.644Z,100099.97
2022-12-14T12:04:55.853Z,100098.63
2022-12-14T12:07:29.801Z,100099.91
2022-12-14T12:10:03.169Z,100096.66
2022-12-14T12:12:32.063Z,100092.81
2022-12-14T12:15:00.896Z,100095.41
2022-12-14T12:17:44.082Z,100089.66
2022-12-14T12:20:24.386Z,100096.25
2022-12-14T12:22:59.497Z,100082.94
2022-12-14T12:25:37.025Z,100093.88
2022-12-14T12:28:15.859Z,100083.47
2022-12-14T12:30:49.108Z,100085.00
2022-12-14T12:33:30.201Z,100076.38
2022-12-14T12:36:04.077Z,100072.66
2022-12-14T12:39:00.245Z,100068.22
2022-12-14T12:41:41.739Z,100071.34
2022-12-14T12:44:28.543Z,100067.19
2022-12-14T12:47:24.333Z,100064.94
2022-12-14T12:50:16.441Z,100067.88
2022-12-14T12:52:57.922Z,100065.78
2022-12-14T12:55:33.258Z,100071.88
2022-12-14T12:58:04.925Z,100061.44
2022-12-14T13:00:34.903Z,100061.69
2022-12-14T13:03:10.242Z,100062.34
2022-12-14T13:05:46.752Z,100055.84
2022-12-14T13:08:23.877Z,100058.91
2022-12-14T13:11:25.575Z,100055.63
2022-12-14T13:13:46.552Z,100053.78
2022-12-14T13:16:26.493Z,100052.38
2022-12-14T13:19:40.400Z,100059.03
2022-12-14T13:21:52.115Z,100049.66
2022-12-14T13:24:22.702Z,100055.66
2022-12-14T13:27:23.922Z,100044.69
2022-12-14T13:30:12.326Z,100042.38
2022-12-14T13:32:52.049Z,100041.53
2022-12-14T13:35:36.504Z,100040.66
2022-12-14T13:38:20.717Z,100038.25
2022-12-14T13:41:10.112Z,100044.63
2022-12-14T13:44:00.280Z,100038.44
2022-12-14T13:46:31.068Z,100043.38
2022-12-14T13:49:03.453Z,100039.56
2022-12-14T13:51:34.328Z,100042.63
2022-12-14T13:54:05.896Z,100035.31
2022-12-14T13:56:38.525Z,100038.59
2022-12-14T13:59:21.647Z,100033.41
2022-12-14T14:01:56.683Z,100030.16
2022-12-14T14:04:26.915Z,100029.50
2022-12-14T14:06:55.760Z,100032.72
2022-12-14T14:10:00.444Z,100024.22
2022-12-14T14:12:53.799Z,100022.50
2022-12-14T14:16:18.825Z,100019.59
2022-12-14T14:18:38.214Z,100026.47
2022-12-14T14:21:31.467Z,100021.31
2022-12-14T14:24:01.383Z,100014.69
2022-12-14T14:26:30.833Z,100009.97
2022-12-14T14:29:22.596Z,100007.84
2022-12-14T14:31:54.065Z,99993.91
2022-12-14T14:34:46.910Z,100002.81
2022-12-14T14:37:29.835Z,99987.84
2022-12-14T14:40:18.329Z,99976.19
2022-12-14T14:42:54.162Z,99979.38
2022-12-14T14:45:33.777Z,99974.19
2022-12-14T14:48:04.561Z,99981.91
2022-12-14T14:50:36.555Z,99980.63
2022-12-14T14:53:33.137Z,99978.13
2022-12-14T14:56:21.436Z,99988.03
2022-12-14T14:58:50.558Z,99981.34
2022-12-14T15:01:29.772Z,99976.78
2022-12-14T15:04:03.398Z,99972.47
2022-12-14T15:06:33.903Z,99974.72
2022-12-14T15:09:06.594Z,99969.66
2022-12-14T15:11:43.598Z,99970.38
2022-12-14T15:14:35.691Z,99968.78
2022-12-14T15:17:17.338Z,99972.97
2022-12-14T15:19:51.447Z,99967.66
2022-12-14T15:22:22.973Z,99966.00
2022-12-14T15:24:54.326Z,99967.16
2022-12-14T15:27:27.887Z,99969.09
2022-12-14T15:30:04.488Z,99966.94
2022-12-14T15:32:34.856Z,99968.69
2022-12-14T15:35:05.856Z,99966.66
2022-12-14T15:37:42.177Z,99979.31
2022-12-14T15:40:15.123Z,99980.09
2022-12-14T15:42:47.275Z,99976.16
2022-12-14T15:45:18.305Z,99970.38
2022-12-14T15:47:49.257Z,99979.22
2022-12-14T15:50:29.644Z,99979.38
2022-12-14T15:53:00.940Z,99976.31
2022-12-14T15:55:41.026Z,99971.25
2022-12-14T15:58:29.806Z,99971.53
2022-12-14T16:01:01.756Z,99971.78
2022-12-14T16:03:36.628Z,99967.34
2022-12-14T16:06:05.771Z,99971.00
2022-12-14T16:08:36.431Z,99968.72
2022-12-14T16:11:08.367Z,99967.69
2022-12-14T16:13:41.601Z,99964.78
2022-12-14T16:16:12.297Z,99970.00
2022-12-14T16:18:51.045Z,99961.88
2022-12-14T16:21:30.751Z,99963.16
2022-12-14T16:23:58.843Z,99964.94
2022-12-14T16:26:29.895Z,99958.00
2022-12-14T16:29:10.032Z,99956.72
2022-12-14T16:31:39.106Z,99955.34
2022-12-14T16:34:15.198Z,99953.53
2022-12-14T16:36:48.197Z,99959.66
2022-12-14T16:39:26.931Z,99957.50
2022-12-14T16:41:58.448Z,99953.44
2022-12-14T16:44:38.901Z,99962.19
2022-12-14T16:47:29.191Z,99962.19
2022-12-14T16:50:00.405Z,99959.41
2022-12-14T16:52:30.625Z,99961.81
2022-12-14T16:55:14.398Z,99966.63
2022-12-14T16:57:53.293Z,99963.94
2022-12-14T17:00:23.640Z,99973.69
2022-12-14T17:02:57.860Z,99972.03
2022-12-14T17:05:36.131Z,99970.53
2022-12-14T17:08:04.679Z,99964.94
2022-12-14T17:10:33.159Z,99965.59
2022-12-14T17:13:03.767Z,99972.56
2022-12-14T17:15:34.253Z,99963.69
2022-12-14T17:18:04.443Z,99972.56
2022-12-14T17:20:39.539Z,99974.81
2022-12-14T17:23:09.581Z,99970.78
2022-12-14T17:25:44.587Z,99977.59
2022-12-14T17:28:22.400Z,99971.00
2022-12-14T17:30:51.804Z,99966.97
2022-12-14T17:33:19.857Z,99965.81
2022-12-14T17:35:49.137Z,99966.44
2022-12-14T17:38:18.671Z,99976.97
2022-12-14T17:40:48.368Z,99979.97
2022-12-14T17:43:21.802Z,99979.56
2022-12-14T17:45:50.144Z,99971.22
2022-12-14T17:48:18.998Z,99977.03
2022-12-14T17:50:51.440Z,99974.00
2022-12-14T17:53:23.474Z,99976.03
2022-12-14T17:55:51.626Z,99969.94
2022-12-14T17:58:23.213Z,99961.59
2022-12-14T18:01:03.647Z,99957.94
2022-12-14T18:03:36.473Z,99959.09
2022-12-14T18:06:06.718Z,99961.34
2022-12-14T18:08:34.869Z,99972.50
2022-12-14T18:11:11.895Z,99966.94
2022-12-14T18:13:42.425Z,99969.47
2022-12-14T18:16:13.627Z,99975.66
2022-12-14T18:18:42.583Z,99964.94
2022-12-14T18:21:20.122Z,99957.94
2022-12-14T18:23:49.767Z,99965.66
2022-12-14T18:26:21.172Z,99964.72
2022-12-14T18:28:57.980Z,99970.81
2022-12-14T18:31:30.399Z,99966.00
2022-12-14T18:33:58.818Z,99968.91
2022-12-14T18:36:28.421Z,99963.97
2022-12-14T18:38:57.239Z,99967.91
2022-12-14T18:41:27.420Z,99966.00
2022-12-14T18:43:55.894Z,99973.69
2022-12-14T18:46:25.131Z,99972.66
2022-12-14T18:48:53.271Z,99970.16
2022-12-14T18:51:24.350Z,99974.19
2022-12-14T18:53:54.527Z,99967.97
2022-12-14T18:56:23.834Z,99971.50
2022-12-14T18:58:52.033Z,99971.88
2022-12-14T19:01:22.793Z,99973.28
2022-12-14T19:03:51.676Z,99973.66
2022-12-14T19:09:11.482Z,99982.22
2022-12-14T19:11:41.805Z,99973.13
2022-12-14T19:14:10.083Z,99961.34
2022-12-14T19:16:39.993Z,99976.00
2022-12-14T19:19:09.434Z,99967.28
2022-12-14T19:21:37.435Z,99974.09
2022-12-14T19:24:08.593Z,99971.72
2022-12-14T19:26:38.629Z,99974.72
2022-12-14T19:29:06.647Z,99978.41
2022-12-14T19:31:34.755Z,99984.75
2022-12-14T19:34:02.799Z,99976.38
2022-12-14T19:36:30.860Z,99979.09
2022-12-14T19:39:00.107Z,99980.19
2022-12-14T19:41:28.168Z,99979.75
2022-12-14T19:44:01.132Z,99983.31
2022-12-14T19:46:29.233Z,99976.25
2022-12-14T19:48:59.664Z,99979.13
2022-12-14T19:51:27.613Z,99978.03
2022-12-14T19:53:56.013Z,99982.59
2022-12-14T19:56:24.218Z,99990.78
2022-12-14T19:58:52.232Z,99993.94
2022-12-14T20:01:21.800Z,99993.13
2022-12-14T20:03:50.334Z,99988.34
2022-12-14T20:06:18.698Z,99993.53
2022-12-14T20:08:49.500Z,99994.63
2022-12-14T20:11:18.052Z,99989.44
2022-12-14T20:13:46.179Z,99996.78
2022-12-14T20:16:17.351Z,99998.66
2022-12-14T20:18:47.452Z,99995.44
2022-12-14T20:21:21.935Z,99998.63
2022-12-14T20:23:50.668Z,99998.84
2022-12-14T20:26:24.303Z,99998.31
2022-12-14T20:28:54.826Z,100001.78
2022-12-14T20:31:23.431Z,99998.03
2022-12-14T20:33:53.072Z,99991.78
2022-12-14T20:36:22.270Z,99987.13
2022-12-14T20:38:54.951Z,99989.56
2022-12-14T20:41:22.936Z,99990.31
2022-12-14T20:43:51.602Z,99988.75
2022-12-14T20:46:31.873Z,99997.28
2022-12-14T20:49:02.918Z,100006.56
2022-12-14T20:51:32.698Z,100000.03
2022-12-14T20:54:02.166Z,99999.25
2022-12-14T20:56:32.844Z,99996.94
2022-12-14T20:59:00.711Z,100004.13
2022-12-14T21:01:28.886Z,100015.00
2022-12-14T21:03:57.757Z,100006.41
2022-12-14T21:06:27.683Z,100005.88
2022-12-14T21:09:11.725Z,100004.50
2022-12-14T21:11:59.893Z,100004.75
2022-12-14T21:14:30.175Z,100007.69
2022-12-14T21:17:00.579Z,100002.66
2022-12-14T21:19:28.917Z,100004.97
2022-12-14T21:21:58.332Z,100012.84
2022-12-14T21:25:00.980Z,100012.53
2022-12-14T21:27:19.537Z,100015.91
2022-12-14T21:29:48.249Z,100020.13
2022-12-14T21:32:17.069Z,100018.09
2022-12-14T21:34:46.078Z,100019.25
2022-12-14T21:37:15.825Z,100012.63
2022-12-14T21:39:50.510Z,100015.38
2022-12-14T21:42:20.661Z,100020.94
2022-12-14T21:44:50.315Z,100021.63
2022-12-14T21:47:20.025Z,100017.53
2022-12-14T21:49:48.646Z,100012.06
2022-12-14T21:52:20.811Z,100017.06
2022-12-14T21:54:48.898Z,100013.09
2022-12-14T21:57:35.346Z,100024.28
2022-12-14T22:00:14.312Z,100021.69
2022-12-14T22:02:43.005Z,100030.72
2022-12-14T22:05:11.504Z,100029.59
2022-12-14T22:07:41.122Z,100026.66
2022-12-14T22:10:09.252Z,100025.47
2022-12-14T22:12:37.482Z,100027.69
2022-12-14T22:15:05.913Z,100031.84
2022-12-14T22:17:34.768Z,100023.59
2022-12-14T22:20:05.564Z,100021.34
2022-12-14T22:22:33.314Z,100026.50
2022-12-14T22:25:02.877Z,100030.50
2022-12-14T22:27:31.491Z,100032.22
2022-12-14T22:29:59.450Z,100033.72
2022-12-14T22:32:27.494Z,100036.84
2022-12-14T22:34:55.858Z,100037.75
2022-12-14T22:37:23.795Z,100040.25
2022-12-14T22:39:51.593Z,100045.34
2022-12-14T22:42:21.064Z,100036.09
2022-12-14T22:44:50.105Z,100036.25
2022-12-14T22:47:18.178Z,100036.41
2022-12-14T22:49:46.160Z,100034.44
2022-12-14T22:52:14.296Z,100041.72
2022-12-14T22:54:43.624Z,100042.09
2022-12-14T22:57:21.788Z,100035.06
2022-12-14T22:59:54.244Z,100047.63
2022-12-14T23:02:22.508Z,100039.78
2022-12-14T23:04:50.777Z,100035.25
2022-12-14T23:07:18.662Z,100034.31
2022-12-14T23:10:04.447Z,100040.44
2022-12-14T23:12:51.144Z,100039.47
2022-12-14T23:15:36.645Z,100036.28
2022-12-14T23:18:23.704Z,100043.66
2022-12-14T23:21:09.538Z,100045.66
2022-12-14T23:23:57.033Z,100046.50
2022-12-14T23:26:42.453Z,100051.22
2022-12-14T23:29:29.465Z,100051.59
2022-12-14T23:32:14.710Z,100052.34
2022-12-14T23:35:00.520Z,100049.81
2022-12-14T23:37:46.139Z,100044.50
2022-12-14T23:40:31.601Z,100048.34
2022-12-14T23:43:16.837Z,100053.41
2022-12-14T23:46:03.758Z,100048.69
2022-12-14T23:48:48.832Z,100051.47
2022-12-14T23:51:34.166Z,100051.22
2022-12-14T23:54:19.644Z,100053.16
2022-12-14T23:57:04.931Z,100047.34
2022-12-14T23:59:50.366Z,100046.28
